createdAt,value
2023-10-18T00:00:29.579Z,100.00
2023-10-18T00:05:53.024Z,100.00
2023-10-18T00:11:18.076Z,100.00
2023-10-18T00:16:41.061Z,98.93
2023-10-18T00:22:04.074Z,96.38
2023-10-18T00:27:28.470Z,94.32
2023-10-18T00:32:51.556Z,95.04
2023-10-18T00:38:17.971Z,94.47
2023-10-18T00:43:45.537Z,92.99
2023-10-18T00:49:15.190Z,94.19
2023-10-18T00:54:40.549Z,92.25
2023-10-18T01:00:09.937Z,93.65
2023-10-18T01:05:33.090Z,93.05
2023-10-18T01:10:58.497Z,95.90
2023-10-18T01:16:23.455Z,93.82
2023-10-18T01:21:47.841Z,91.88
2023-10-18T01:27:14.756Z,92.29
2023-10-18T01:32:37.723Z,91.65
2023-10-18T01:38:05.338Z,91.18
2023-10-18T01:43:29.736Z,92.56
2023-10-18T01:48:53.466Z,93.62
2023-10-18T01:54:17.023Z,93.48
2023-10-18T01:59:41.487Z,95.70
2023-10-18T02:05:07.226Z,95.53
2023-10-18T02:10:30.284Z,96.21
2023-10-18T02:15:54.960Z,93.33
2023-10-18T02:21:18.041Z,92.29
2023-10-18T02:26:54.481Z,92.29
2023-10-18T02:32:24.615Z,92.09
2023-10-18T02:37:47.778Z,93.00
2023-10-18T02:43:12.496Z,92.05
2023-10-18T02:48:38.805Z,92.54
2023-10-18T02:54:09.134Z,92.27
2023-10-18T02:59:33.018Z,91.19
2023-10-18T03:04:57.514Z,91.29
2023-10-18T03:10:28.990Z,90.33
2023-10-18T03:16:06.270Z,91.31
2023-10-18T03:21:33.891Z,91.71
2023-10-18T03:27:07.347Z,91.02
2023-10-18T03:32:31.634Z,90.88
2023-10-18T03:38:04.436Z,90.32
2023-10-18T03:43:33.280Z,90.89
2023-10-18T03:48:57.189Z,89.46
2023-10-18T03:54:24.688Z,89.18
2023-10-18T03:59:48.015Z,91.08
2023-10-18T04:05:18.037Z,91.88
2023-10-18T04:10:42.853Z,93.31
2023-10-18T04:16:11.540Z,92.66
2023-10-18T04:21:37.755Z,90.98
2023-10-18T04:27:05.708Z,91.50
2023-10-18T04:32:28.897Z,91.70
2023-10-18T04:37:51.902Z,93.97
2023-10-18T04:43:19.812Z,95.09
2023-10-18T04:49:01.537Z,92.84
2023-10-18T04:54:36.908Z,92.96
2023-10-18T05:00:12.050Z,92.09
2023-10-18T05:05:45.851Z,92.32
2023-10-18T05:11:23.192Z,92.61
2023-10-18T05:16:48.249Z,93.79
2023-10-18T05:22:17.031Z,92.45
2023-10-18T05:27:47.485Z,94.19
2023-10-18T05:33:16.830Z,93.42
2023-10-18T05:38:51.756Z,92.77
2023-10-18T05:44:15.344Z,91.87
2023-10-18T05:49:42.991Z,93.00
2023-10-18T05:55:13.014Z,92.16
2023-10-18T06:00:37.130Z,95.25
2023-10-18T06:06:01.638Z,93.14
2023-10-18T06:11:24.636Z,93.95
2023-10-18T06:16:52.583Z,92.92
2023-10-18T06:22:29.350Z,93.14
2023-10-18T06:27:52.731Z,93.52
2023-10-18T06:33:16.998Z,95.09
2023-10-18T06:38:43.631Z,96.50
2023-10-18T06:44:12.443Z,96.48
2023-10-18T06:49:35.514Z,97.29
2023-10-18T06:55:02.020Z,96.62
2023-10-18T07:00:31.658Z,98.00
2023-10-18T07:05:55.616Z,92.89
2023-10-18T07:11:28.556Z,93.41
2023-10-18T07:16:57.530Z,96.71
2023-10-18T07:22:22.435Z,96.98
2023-10-18T07:27:46.867Z,94.36
2023-10-18T07:33:12.890Z,93.51
2023-10-18T07:38:38.804Z,95.36
2023-10-18T07:44:06.739Z,95.51
2023-10-18T07:49:32.525Z,94.86
2023-10-18T07:54:55.624Z,100.00
2023-10-18T08:00:23.958Z,100.00
2023-10-18T08:05:51.731Z,95.77
2023-10-18T08:11:15.947Z,92.38
2023-10-18T08:16:46.148Z,92.04
2023-10-18T08:22:24.332Z,91.78
2023-10-18T08:27:47.750Z,90.24
2023-10-18T08:33:12.565Z,90.26
2023-10-18T08:38:35.506Z,93.89
2023-10-18T08:44:09.923Z,89.11
2023-10-18T08:49:36.384Z,87.18
2023-10-18T08:55:20.502Z,84.96
2023-10-18T09:01:01.312Z,86.23
2023-10-18T09:06:32.247Z,89.00
2023-10-18T09:11:56.671Z,85.76
2023-10-18T09:17:24.315Z,86.08
2023-10-18T09:22:50.800Z,89.26
2023-10-18T09:28:19.503Z,86.68
2023-10-18T09:33:50.206Z,86.31
2023-10-18T09:39:16.529Z,82.82
2023-10-18T09:44:43.338Z,88.11
2023-10-18T09:50:10.785Z,86.26
2023-10-18T09:55:36.496Z,81.58
2023-10-18T10:01:14.972Z,77.59
2023-10-18T10:06:46.587Z,80.67
2023-10-18T10:12:12.393Z,79.19
2023-10-18T10:17:37.751Z,74.15
2023-10-18T10:23:03.808Z,73.36
2023-10-18T10:29:04.240Z,65.19
2023-10-18T10:34:29.651Z,66.32
2023-10-18T10:40:16.892Z,67.57
2023-10-18T10:45:55.266Z,61.55
2023-10-18T10:51:22.523Z,61.77
2023-10-18T10:56:54.919Z,62.23
2023-10-18T11:02:25.412Z,59.46
2023-10-18T11:07:48.580Z,59.05
2023-10-18T11:13:14.457Z,64.63
2023-10-18T11:18:44.104Z,65.86
2023-10-18T11:24:12.319Z,62.39
2023-10-18T11:29:41.827Z,66.47
2023-10-18T11:35:11.526Z,70.67
2023-10-18T11:40:35.340Z,70.57
2023-10-18T11:46:09.346Z,69.40
2023-10-18T11:51:46.351Z,73.99
2023-10-18T11:57:26.110Z,69.05
2023-10-18T12:02:49.536Z,72.27
2023-10-18T12:08:15.044Z,70.78
2023-10-18T12:13:38.645Z,70.93
2023-10-18T12:19:02.289Z,70.97
2023-10-18T12:24:28.553Z,72.59
2023-10-18T12:29:53.469Z,69.60
2023-10-18T12:35:16.962Z,65.14
2023-10-18T12:40:42.794Z,68.06
2023-10-18T12:46:07.357Z,69.91
2023-10-18T12:56:59.279Z,66.98
2023-10-18T13:07:53.883Z,64.66
2023-10-18T13:13:18.889Z,60.70
2023-10-18T13:18:47.045Z,59.68
2023-10-18T13:24:30.039Z,59.26
2023-10-18T13:30:02.477Z,62.29
2023-10-18T13:35:25.690Z,62.47
2023-10-18T13:40:50.274Z,62.36
2023-10-18T13:46:19.826Z,62.27
2023-10-18T13:51:44.089Z,62.07
2023-10-18T13:57:08.827Z,67.93
2023-10-18T14:02:32.970Z,62.05
2023-10-18T14:07:56.196Z,59.64
2023-10-18T14:13:20.490Z,62.79
2023-10-18T14:18:44.433Z,58.83
2023-10-18T14:24:09.151Z,61.38
2023-10-18T14:29:33.933Z,56.22
2023-10-18T14:34:58.626Z,59.54
2023-10-18T14:40:24.781Z,61.84
2023-10-18T14:45:49.167Z,66.24
2023-10-18T14:51:12.371Z,66.36
2023-10-18T14:56:35.629Z,67.93
2023-10-18T15:02:00.121Z,67.47
2023-10-18T15:07:23.155Z,70.51
2023-10-18T15:12:46.215Z,74.56
2023-10-18T15:18:10.703Z,73.56
2023-10-18T15:23:36.509Z,73.58
2023-10-18T15:28:59.485Z,75.41
2023-10-18T15:34:31.464Z,73.58
2023-10-18T15:39:57.310Z,76.68
2023-10-18T15:45:21.641Z,73.71
2023-10-18T15:50:46.186Z,72.69
2023-10-18T15:56:12.010Z,74.99
2023-10-18T16:01:51.060Z,77.61
2023-10-18T16:07:19.436Z,77.39
2023-10-18T16:12:42.846Z,75.52
2023-10-18T16:18:06.745Z,79.44
2023-10-18T16:23:31.473Z,78.77
2023-10-18T16:28:54.628Z,79.81
2023-10-18T16:34:20.711Z,79.75
2023-10-18T16:39:45.219Z,78.76
2023-10-18T16:45:09.811Z,80.19
2023-10-18T16:50:32.890Z,82.30
2023-10-18T16:55:57.783Z,81.92
2023-10-18T17:01:22.089Z,82.04
2023-10-18T17:06:46.188Z,82.68
2023-10-18T17:12:12.081Z,83.79
2023-10-18T17:17:35.089Z,82.30
2023-10-18T17:22:58.443Z,84.74
2023-10-18T17:28:24.938Z,81.02
2023-10-18T17:33:48.449Z,82.19
2023-10-18T17:39:12.715Z,85.81
2023-10-18T17:44:38.566Z,83.06
2023-10-18T17:50:02.263Z,81.43
2023-10-18T17:55:25.992Z,83.87
2023-10-18T18:00:56.139Z,81.99
2023-10-18T18:06:19.950Z,85.28
2023-10-18T18:11:42.988Z,85.35
2023-10-18T18:17:08.491Z,85.24
2023-10-18T18:22:32.968Z,85.11
2023-10-18T18:27:57.827Z,86.32
2023-10-18T18:33:22.985Z,85.85
2023-10-18T18:38:46.118Z,84.64
2023-10-18T18:44:09.122Z,85.99
2023-10-18T18:49:33.392Z,83.48
2023-10-18T18:54:56.655Z,83.48
2023-10-18T19:00:21.642Z,83.81
2023-10-18T19:05:47.061Z,83.94
2023-10-18T19:11:19.924Z,85.11
2023-10-18T19:16:42.982Z,84.69
2023-10-18T19:22:07.492Z,86.59
2023-10-18T19:27:30.656Z,86.88
2023-10-18T19:32:56.019Z,87.74
2023-10-18T19:38:22.751Z,86.50
2023-10-18T19:43:46.391Z,90.89
2023-10-18T19:49:10.465Z,89.69
2023-10-18T19:54:35.031Z,89.94
2023-10-18T19:59:58.313Z,88.62
2023-10-18T20:05:22.218Z,86.82
2023-10-18T20:10:46.574Z,85.86
2023-10-18T20:16:12.033Z,88.60
2023-10-18T20:21:36.675Z,86.17
2023-10-18T20:27:01.088Z,84.18
2023-10-18T20:32:24.378Z,82.65
2023-10-18T20:37:47.756Z,81.55
2023-10-18T20:43:13.290Z,81.46
2023-10-18T20:48:36.533Z,83.84
2023-10-18T20:53:59.737Z,82.64
2023-10-18T20:59:25.758Z,83.31
2023-10-18T21:04:49.851Z,83.56
2023-10-18T21:10:14.587Z,87.04
2023-10-18T21:15:39.975Z,85.16
2023-10-18T21:21:06.333Z,87.35
2023-10-18T21:26:29.487Z,87.47
2023-10-18T21:31:54.201Z,90.97
2023-10-18T21:37:17.358Z,89.17
2023-10-18T21:42:40.938Z,94.58
2023-10-18T21:48:06.270Z,92.99
2023-10-18T21:53:30.359Z,92.23
2023-10-18T21:58:54.199Z,98.74
2023-10-18T22:04:20.979Z,92.26
2023-10-18T22:09:53.903Z,93.82
2023-10-18T22:15:20.334Z,95.61
2023-10-18T22:20:46.410Z,90.79
2023-10-18T22:26:15.966Z,89.29
2023-10-18T22:31:39.509Z,96.37
2023-10-18T22:37:07.885Z,96.56
2023-10-18T22:42:39.829Z,91.42
2023-10-18T22:48:22.549Z,93.84
2023-10-18T22:53:52.523Z,97.27
2023-10-18T22:59:17.894Z,93.87
2023-10-18T23:04:45.381Z,92.91
2023-10-18T23:10:12.372Z,97.45
2023-10-18T23:15:48.796Z,92.72
2023-10-18T23:21:31.160Z,97.57
2023-10-18T23:27:13.831Z,92.19
2023-10-18T23:32:53.659Z,90.32
2023-10-18T23:38:24.113Z,89.21
2023-10-18T23:43:50.496Z,90.79
2023-10-18T23:49:46.206Z,93.31
2023-10-18T23:55:15.098Z,92.22
